Time;durP1;ratioP1;P1;durP2;ratioP2;P2;SDS_P1;SDS_P2;PMS_P1;PMS_P2;Temp;Humidity;BMP_temperature;BMP_pressure;BME280_temperature;BME280_humidity;BME280_pressure;Samples;Min_cycle;Max_cycle;Signal;HPM_P1;HPM_P2
2021/04/21 00:02:20;;;;;;;22.07;14.00;;;;;;;5.24;72.69;98557.93;2259308;79;21097;-80
2021/04/21 00:05:21;;;;;;;23.57;15.13;;;;;;;5.23;72.76;98557.47;2259232;79;21343;-80
2021/04/21 00:08:22;;;;;;;24.17;16.37;;;;;;;5.27;73.08;98558.02;2258954;79;21109;-79
2021/04/21 00:11:23;;;;;;;22.43;14.40;;;;;;;5.30;73.16;98553.80;2259227;79;21096;-80
2021/04/21 00:14:25;;;;;;;19.87;14.57;;;;;;;5.28;72.82;98549.41;2258929;79;21239;-79
2021/04/21 00:17:26;;;;;;;22.03;15.00;;;;;;;5.31;73.39;98552.09;2259183;79;21156;-81
2021/04/21 00:20:27;;;;;;;20.30;14.27;;;;;;;5.35;73.01;98547.45;2259368;79;21410;-80
2021/04/21 00:23:28;;;;;;;20.87;13.87;;;;;;;5.35;73.01;98547.45;2259280;79;21120;-80
2021/04/21 00:26:30;;;;;;;22.07;14.57;;;;;;;5.34;73.44;98547.00;2258338;79;21375;-79
2021/04/21 00:29:31;;;;;;;22.60;14.80;;;;;;;5.39;73.63;98546.70;2258682;79;21370;-80
2021/04/21 00:32:33;;;;;;;20.13;13.23;;;;;;;5.46;73.63;98546.03;2259315;79;21096;-81
2021/04/21 00:35:34;;;;;;;19.83;13.97;;;;;;;5.42;72.57;98545.50;2259667;79;21109;-80
2021/04/21 00:38:35;;;;;;;18.83;13.97;;;;;;;5.36;72.89;98541.45;2259441;79;21148;-80
2021/04/21 00:41:37;;;;;;;19.40;13.87;;;;;;;5.31;73.04;98532.68;2258813;78;21212;-79
2021/04/21 00:44:41;;;;;;;41.70;24.53;;;;;;;5.31;73.40;98537.86;2260041;79;21224;-80
2021/04/21 00:47:42;;;;;;;26.73;15.25;;;;;;;5.37;73.82;98539.31;2259409;79;21097;-80
2021/04/21 00:50:43;;;;;;;25.40;14.30;;;;;;;5.40;73.42;98536.39;2259534;79;21128;-81
2021/04/21 00:53:44;;;;;;;30.60;15.40;;;;;;;5.36;73.25;98537.14;2259324;79;21077;-78
2021/04/21 00:56:45;;;;;;;25.30;13.30;;;;;;;5.38;73.48;98537.19;2237221;79;21157;-79
2021/04/21 00:59:46;;;;;;;25.93;15.97;;;;;;;5.26;73.44;98531.26;2227569;80;21062;-78
2021/04/21 01:02:47;;;;;;;24.50;16.40;;;;;;;5.26;73.44;98531.26;2227239;80;21062;-81
2021/04/21 01:05:48;;;;;;;29.00;17.20;;;;;;;5.19;73.37;98531.02;2227658;79;21229;-80
2021/04/21 01:08:49;;;;;;;19.37;14.13;;;;;;;5.17;73.64;98528.38;2227697;80;21376;-80
2021/04/21 01:11:50;;;;;;;18.97;13.40;;;;;;;5.15;73.40;98527.88;2227838;80;21066;-81
2021/04/21 01:14:51;;;;;;;24.60;13.97;;;;;;;5.11;73.37;98521.33;2227341;80;21093;-80
2021/04/21 01:17:52;;;;;;;16.90;13.30;;;;;;;5.09;73.59;98521.70;2227652;80;21145;-79
2021/04/21 01:20:53;;;;;;;28.97;15.63;;;;;;;5.08;73.48;98518.66;2227213;79;21114;-79
2021/04/21 01:23:54;;;;;;;19.93;14.20;;;;;;;5.06;73.43;98519.44;2227803;80;21106;-80
2021/04/21 01:26:55;;;;;;;17.93;14.13;;;;;;;5.03;73.45;98517.65;2227132;80;21400;-80
2021/04/21 01:29:57;;;;;;;18.37;13.63;;;;;;;5.02;73.68;98519.77;2228032;80;21357;-79
2021/04/21 01:32:58;;;;;;;20.73;14.97;;;;;;;5.04;73.80;98521.11;2226924;80;21137;-80
2021/04/21 01:35:59;;;;;;;24.10;14.17;;;;;;;5.08;73.71;98517.36;2226837;80;21099;-79
2021/04/21 01:39:00;;;;;;;25.63;14.83;;;;;;;5.09;73.86;98516.94;2226766;80;21114;-79
2021/04/21 01:42:01;;;;;;;23.07;15.17;;;;;;;5.10;73.93;98531.63;2226207;80;21113;-79
2021/04/21 01:45:02;;;;;;;22.83;14.27;;;;;;;5.13;74.29;98528.72;2226869;80;21062;-79
2021/04/21 01:48:03;;;;;;;18.70;14.20;;;;;;;5.19;73.91;98530.59;2227341;80;21121;-78
2021/04/21 01:51:04;;;;;;;20.73;14.17;;;;;;;5.16;73.87;98525.34;2226574;80;21094;-79
2021/04/21 01:54:05;;;;;;;25.60;15.10;;;;;;;5.15;73.93;98524.00;2226246;80;21106;-79
2021/04/21 01:57:06;;;;;;;25.17;17.03;;;;;;;5.10;73.78;98527.75;2249144;79;21151;-82
2021/04/21 02:00:07;;;;;;;20.90;15.67;;;;;;;5.09;73.90;98527.30;2258983;78;21097;-79
2021/04/21 02:03:08;;;;;;;28.33;16.70;;;;;;;5.08;74.17;98521.24;2258096;78;21116;-80
2021/04/21 02:06:09;;;;;;;118.67;21.37;;;;;;;5.12;74.28;98522.20;2258761;79;21109;-79
2021/04/21 02:09:10;;;;;;;24.00;16.60;;;;;;;5.16;74.41;98527.05;2258664;79;21100;-80
2021/04/21 02:12:11;;;;;;;28.27;16.40;;;;;;;5.21;74.34;98522.91;2258635;79;21100;-79
2021/04/21 02:15:13;;;;;;;26.90;17.97;;;;;;;5.22;74.25;98524.66;2258334;78;21116;-80
2021/04/21 02:18:14;;;;;;;25.63;18.77;;;;;;;5.23;74.22;98519.95;2258358;79;21113;-79
2021/04/21 02:21:15;;;;;;;32.87;22.30;;;;;;;5.20;74.09;98520.73;2258249;79;21112;-78
2021/04/21 02:24:16;;;;;;;43.57;16.83;;;;;;;5.20;74.42;98518.53;2259174;79;21065;-80
2021/04/21 02:27:17;;;;;;;29.07;20.83;;;;;;;5.64;81.53;98517.17;2259034;79;21124;-79
2021/04/21 02:30:18;;;;;;;32.63;22.03;;;;;;;6.59;74.60;98517.80;2259322;79;21094;-79
2021/04/21 02:33:19;;;;;;;164.10;30.30;;;;;;;6.39;73.15;98515.63;2258394;79;21117;-82
2021/04/21 02:36:20;;;;;;;34.23;21.40;;;;;;;6.22;73.24;98519.55;2260432;79;21413;-80
2021/04/21 02:39:21;;;;;;;26.90;19.90;;;;;;;6.10;73.03;98520.55;2259617;79;21061;-80
2021/04/21 02:42:22;;;;;;;38.90;22.50;;;;;;;5.96;72.92;98520.19;2258792;79;21116;-78
2021/04/21 02:45:23;;;;;;;33.27;20.40;;;;;;;5.84;73.23;98517.67;2258571;79;21378;-81
2021/04/21 02:48:24;;;;;;;30.90;20.30;;;;;;;5.73;73.25;98519.58;2259845;79;21092;-81
2021/04/21 02:51:25;;;;;;;33.20;20.43;;;;;;;5.58;73.25;98519.59;2259239;79;21176;-77
2021/04/21 02:54:26;;;;;;;81.30;21.10;;;;;;;5.48;73.51;98522.36;2258898;79;21382;-80
2021/04/21 02:57:28;;;;;;;24.70;17.33;;;;;;;5.40;73.67;98520.86;2258581;79;21128;-80
2021/04/21 03:00:29;;;;;;;25.53;17.30;;;;;;;5.33;73.83;98516.77;2258608;79;21096;-80
2021/04/21 03:03:30;;;;;;;26.40;17.30;;;;;;;5.28;73.69;98517.06;2259275;79;21222;-80
2021/04/21 03:06:31;;;;;;;60.27;20.10;;;;;;;5.22;73.76;98511.72;2259225;79;21109;-80
2021/04/21 03:09:32;;;;;;;23.27;15.90;;;;;;;5.14;74.02;98512.77;2259541;79;21073;-80
2021/04/21 03:12:33;;;;;;;18.87;14.20;;;;;;;5.13;74.13;98511.89;2259258;79;21096;-80
2021/04/21 03:15:34;;;;;;;24.10;16.40;;;;;;;5.08;74.03;98516.06;2259213;79;21108;-80
2021/04/21 03:18:35;;;;;;;23.70;14.93;;;;;;;5.03;73.92;98514.19;2260150;79;21403;-81
2021/04/21 03:21:36;;;;;;;21.33;13.50;;;;;;;4.98;73.76;98526.11;2259713;79;21101;-81
2021/04/21 03:24:37;;;;;;;19.47;14.17;;;;;;;4.97;73.88;98526.94;2260165;79;21096;-81
2021/04/21 03:27:38;;;;;;;21.87;13.73;;;;;;;4.94;73.93;98512.63;2259538;79;21136;-80
2021/04/21 03:30:39;;;;;;;21.50;13.53;;;;;;;4.88;73.83;98513.33;2259251;79;21093;-79
2021/04/21 03:33:40;;;;;;;72.90;14.77;;;;;;;4.82;73.57;98511.86;2258861;79;21089;-80
2021/04/21 03:36:41;;;;;;;17.37;11.60;;;;;;;4.77;73.87;98512.14;2259174;79;21120;-80
2021/04/21 03:39:42;;;;;;;17.43;11.67;;;;;;;4.74;73.85;98511.64;2259377;79;21208;-80
2021/04/21 03:42:44;;;;;;;75.27;16.50;;;;;;;4.74;73.89;98510.77;2259119;79;21125;-80
2021/04/21 03:45:45;;;;;;;17.47;10.50;;;;;;;4.72;73.92;98514.59;2259062;79;21521;-79
2021/04/21 03:48:46;;;;;;;31.63;11.97;;;;;;;4.70;73.75;98514.97;2258918;79;21093;-79
2021/04/21 03:51:47;;;;;;;20.97;11.13;;;;;;;4.72;73.87;98514.59;2258171;79;21135;-79
2021/04/21 03:54:48;;;;;;;21.53;12.77;;;;;;;4.77;74.08;98514.73;2258177;79;21112;-79
2021/04/21 03:57:49;;;;;;;17.37;11.50;;;;;;;4.84;74.43;98520.54;2234532;79;21415;-81
2021/04/21 04:00:53;;;;;;;16.30;11.60;;;;;;;4.91;74.11;98519.88;2227586;79;21333;-80
2021/04/21 04:03:54;;;;;;;16.30;11.73;;;;;;;4.92;73.96;98519.05;2227428;80;21093;-80
2021/04/21 04:06:56;;;;;;;17.30;11.93;;;;;;;4.96;73.96;98520.02;2226689;79;21110;-79
2021/04/21 04:09:57;;;;;;;18.90;13.70;;;;;;;4.98;73.96;98518.35;2226987;80;21236;-79
2021/04/21 04:13:00;;;;;;;25.77;15.17;;;;;;;5.02;74.02;98517.19;2227119;80;21078;-79
2021/04/21 04:16:01;;;;;;;22.67;16.10;;;;;;;5.11;74.14;98520.03;2226949;80;21094;-80
2021/04/21 04:19:02;;;;;;;20.03;15.60;;;;;;;5.18;74.21;98515.03;2227078;80;21085;-78
2021/04/21 04:22:03;;;;;;;34.77;16.70;;;;;;;5.28;74.45;98522.24;2226670;80;21141;-80
2021/04/21 04:25:04;;;;;;;22.33;14.30;;;;;;;5.38;74.42;98522.53;2227011;80;21097;-79
2021/04/21 04:28:07;;;;;;;23.27;16.67;;;;;;;5.48;74.27;98516.30;2227341;80;21102;-80
2021/04/21 04:31:08;;;;;;;28.43;17.40;;;;;;;5.55;74.40;98515.22;2227342;80;21229;-80
2021/04/21 04:34:09;;;;;;;32.57;17.70;;;;;;;5.69;74.62;98515.16;2227229;80;21243;-80
2021/04/21 04:37:10;;;;;;;31.83;22.50;;;;;;;5.86;74.72;98519.88;2226500;80;21272;-78
2021/04/21 04:40:11;;;;;;;45.67;25.97;;;;;;;6.00;74.86;98518.55;2226543;80;21109;-79
2021/04/21 04:43:12;;;;;;;44.80;29.17;;;;;;;6.17;75.11;98524.17;2226618;80;21063;-80
2021/04/21 04:46:13;;;;;;;37.10;25.40;;;;;;;6.37;75.27;98530.28;2226929;80;21125;-80
2021/04/21 04:49:14;;;;;;;59.40;30.90;;;;;;;6.58;76.13;98529.02;2227117;80;21117;-80
2021/04/21 04:52:16;;;;;;;104.53;30.73;;;;;;;6.95;74.96;98525.11;2226366;80;21117;-80
2021/04/21 04:55:17;;;;;;;69.90;36.93;;;;;;;7.07;74.55;98528.80;2225863;80;21395;-79
2021/04/21 04:58:18;;;;;;;68.83;40.03;;;;;;;7.43;74.83;98534.72;2252890;79;21311;-78
2021/04/21 05:01:19;;;;;;;59.73;36.87;;;;;;;7.43;74.83;98534.72;2257703;79;21355;-78
2021/04/21 05:04:20;;;;;;;61.40;36.33;;;;;;;7.84;73.83;98526.42;2257939;79;21124;-78
2021/04/21 05:07:21;;;;;;;62.67;37.10;;;;;;;7.84;73.83;98526.42;2258060;79;21097;-79
2021/04/21 05:10:22;;;;;;;54.83;35.43;;;;;;;8.03;73.43;98525.44;2258223;79;21092;-79
2021/04/21 05:13:23;;;;;;;53.03;33.13;;;;;;;8.21;73.10;98520.11;2257867;79;21382;-79
2021/04/21 05:16:24;;;;;;;51.97;37.07;;;;;;;8.41;72.75;98515.67;2258352;79;21173;-79
2021/04/21 05:19:25;;;;;;;62.33;39.97;;;;;;;8.59;72.40;98525.05;2258345;79;21231;-79
2021/04/21 05:22:26;;;;;;;54.30;32.90;;;;;;;8.84;72.13;98525.88;2257921;79;21136;-79
2021/04/21 05:25:30;;;;;;;50.43;29.97;;;;;;;9.04;71.68;98527.44;2257755;79;21405;-78
2021/04/21 05:28:31;;;;;;;47.17;25.17;;;;;;;9.25;71.31;98522.92;2257869;79;21063;-78
2021/04/21 05:31:32;;;;;;;41.40;25.93;;;;;;;9.43;70.64;98520.53;2258037;79;21092;-79
2021/04/21 05:34:33;;;;;;;38.77;27.20;;;;;;;9.56;70.36;98524.17;2257629;78;21121;-79
2021/04/21 05:37:35;;;;;;;45.43;24.53;;;;;;;9.73;70.00;98518.70;2258049;78;21141;-79
2021/04/21 05:40:36;;;;;;;41.23;25.03;;;;;;;9.89;69.35;98524.94;2257961;79;21234;-79
2021/04/21 05:43:37;;;;;;;36.70;24.10;;;;;;;10.02;69.40;98522.89;2257999;79;21371;-78
2021/04/21 05:46:38;;;;;;;36.07;23.90;;;;;;;10.18;69.02;98527.80;2257816;79;21104;-79
2021/04/21 05:49:39;;;;;;;31.60;21.93;;;;;;;10.32;68.58;98522.30;2258011;79;21073;-80
2021/04/21 05:52:40;;;;;;;32.00;23.80;;;;;;;10.41;68.03;98529.35;2257936;79;21148;-79
2021/04/21 05:55:41;;;;;;;42.77;24.37;;;;;;;10.48;67.53;98532.02;2258379;79;21084;-79
2021/04/21 05:58:42;;;;;;;36.93;24.77;;;;;;;10.47;67.29;98531.58;2231431;79;21436;-79
2021/04/21 06:01:43;;;;;;;38.37;25.63;;;;;;;10.52;67.26;98532.91;2226589;80;21480;-80
2021/04/21 06:04:44;;;;;;;33.50;23.90;;;;;;;10.51;67.14;98532.47;2226021;80;21097;-79
2021/04/21 06:07:45;;;;;;;42.67;25.37;;;;;;;10.59;66.93;98536.00;2226075;80;21213;-80
2021/04/21 06:10:47;;;;;;;34.40;22.37;;;;;;;10.70;66.35;98529.55;2226487;80;21120;-78
2021/04/21 06:13:48;;;;;;;36.53;23.83;;;;;;;10.92;66.11;98533.16;2226336;80;21491;-79
2021/04/21 06:16:49;;;;;;;28.98;20.55;;;;;;;11.03;66.03;98532.78;2226684;80;21113;-79
2021/04/21 06:19:50;;;;;;;30.62;22.45;;;;;;;11.19;65.44;98528.06;2226602;80;21094;-79
2021/04/21 06:22:51;;;;;;;30.20;20.50;;;;;;;11.44;65.55;98534.30;2226619;79;21117;-79
2021/04/21 06:25:52;;;;;;;30.80;19.98;;;;;;;11.69;64.42;98533.93;2226212;80;21102;-80
2021/04/21 06:28:54;;;;;;;30.20;20.97;;;;;;;11.83;64.31;98532.25;2226777;80;21224;-80
2021/04/21 06:31:55;;;;;;;24.25;17.23;;;;;;;11.89;63.74;98532.26;2226655;80;21098;-79
2021/04/21 06:34:57;;;;;;;29.45;21.52;;;;;;;12.17;63.03;98534.94;2226718;80;21133;-80
2021/04/21 06:37:58;;;;;;;24.33;18.20;;;;;;;12.30;61.86;98533.62;2225773;80;21153;-80
2021/04/21 06:40:59;;;;;;;33.15;19.42;;;;;;;12.40;62.11;98530.14;2225215;80;21121;-77
2021/04/21 06:44:00;;;;;;;28.90;20.12;;;;;;;12.57;62.16;98535.80;2226305;80;21471;-79
2021/04/21 06:47:01;;;;;;;26.20;19.73;;;;;;;12.69;61.41;98531.42;2226361;79;21399;-78
2021/04/21 06:50:02;;;;;;;21.20;17.10;;;;;;;12.79;61.42;98527.47;2226417;80;21415;-78
2021/04/21 06:53:03;;;;;;;25.45;18.65;;;;;;;12.90;60.58;98530.94;2226217;80;21383;-80
2021/04/21 06:56:05;;;;;;;19.10;17.07;;;;;;;13.15;60.66;98527.41;2226976;80;21105;-78
2021/04/21 06:59:07;;;;;;;25.70;17.65;;;;;;;13.35;59.20;98526.05;2254787;79;21140;-78
2021/04/21 07:02:08;;;;;;;27.15;17.35;;;;;;;13.44;58.45;98527.75;2258246;79;21097;-76
2021/04/21 07:05:09;;;;;;;21.75;16.32;;;;;;;13.68;59.01;98525.00;2257908;79;21108;-78
2021/04/21 07:08:10;;;;;;;20.50;14.90;;;;;;;13.97;58.55;98527.04;2258103;79;21343;-80
2021/04/21 07:11:11;;;;;;;22.80;13.60;;;;;;;14.19;55.92;98525.56;2257926;79;21108;-77
2021/04/21 07:14:12;;;;;;;17.75;14.33;;;;;;;14.24;55.52;98523.78;2257930;79;21061;-78
2021/04/21 07:17:13;;;;;;;22.67;15.38;;;;;;;14.19;54.97;98520.31;2257783;79;21134;-78
2021/04/21 07:20:14;;;;;;;17.00;14.55;;;;;;;14.42;56.19;98522.34;2258088;79;21117;-78
2021/04/21 07:23:15;;;;;;;18.10;13.60;;;;;;;14.68;55.36;98525.17;2256482;79;21117;-78
2021/04/21 07:26:16;;;;;;;20.80;16.25;;;;;;;14.88;54.61;98523.25;2257902;79;21386;-77
2021/04/21 07:29:18;;;;;;;19.67;13.35;;;;;;;14.88;54.01;98525.44;2258022;79;21120;-78
2021/04/21 07:32:19;;;;;;;18.80;15.68;;;;;;;15.08;54.64;98523.91;2257959;79;21108;-78
2021/04/21 07:35:20;;;;;;;18.73;14.95;;;;;;;15.16;53.40;98527.77;2258560;79;21125;-79
2021/04/21 07:38:22;;;;;;;60.33;14.83;;;;;;;15.18;53.18;98534.74;2258461;78;21144;-78
2021/04/21 07:41:23;;;;;;;16.60;13.20;;;;;;;15.27;52.61;98533.77;2258886;78;21096;-80
2021/04/21 07:44:24;;;;;;;15.55;12.88;;;;;;;15.18;51.64;98534.74;2259382;79;21089;-81
2021/04/21 07:47:25;;;;;;;15.63;11.33;;;;;;;14.81;52.18;98535.58;2258930;79;21128;-80
2021/04/21 07:50:26;;;;;;;16.62;11.70;;;;;;;14.96;52.79;98538.50;2258581;79;21254;-80
2021/04/21 07:53:27;;;;;;;21.42;13.93;;;;;;;14.94;50.46;98540.27;2258103;79;21371;-78
2021/04/21 07:56:34;;;;;;;16.27;11.93;;;;;;;15.03;52.37;98531.41;2258660;79;21077;-80
2021/04/21 07:59:33;;;;;;;15.48;12.07;;;;;;;14.88;51.81;98534.63;2257503;79;21434;-78
2021/04/21 08:02:34;;;;;;;13.50;10.95;;;;;;;14.78;52.06;98535.61;2257864;79;21100;-78
2021/04/21 08:05:35;;;;;;;15.85;12.47;;;;;;;14.93;50.99;98536.77;2258335;79;21121;-80
2021/04/21 08:08:36;;;;;;;15.48;11.75;;;;;;;15.14;51.87;98534.35;2258749;79;21057;-80
2021/04/21 08:11:37;;;;;;;13.43;11.00;;;;;;;15.32;50.48;98535.89;2258196;79;21096;-80
2021/04/21 08:14:38;;;;;;;12.45;11.15;;;;;;;15.65;49.96;98529.40;2258138;79;21109;-79
2021/04/21 08:17:39;;;;;;;14.07;10.90;;;;;;;15.80;49.94;98525.23;2257667;78;21413;-78
2021/04/21 08:20:40;;;;;;;26.85;17.52;;;;;;;16.19;48.33;98524.22;2257788;79;21101;-79
2021/04/21 08:23:42;;;;;;;8.50;7.67;;;;;;;16.38;45.47;98534.01;2257673;79;21132;-76
2021/04/21 08:26:43;;;;;;;8.78;6.90;;;;;;;16.44;46.83;98530.83;2257361;79;21092;-76
2021/04/21 08:29:44;;;;;;;9.48;7.72;;;;;;;16.64;44.92;98525.70;2257944;79;21125;-76
2021/04/21 08:32:45;;;;;;;11.73;7.75;;;;;;;16.93;44.53;98530.03;2257723;79;21076;-77
2021/04/21 08:35:46;;;;;;;9.90;8.13;;;;;;;17.08;45.16;98525.78;2257683;79;21100;-76
2021/04/21 08:38:47;;;;;;;13.90;7.30;;;;;;;17.22;42.27;98518.92;2257616;79;21558;-78
2021/04/21 08:41:50;;;;;;;9.53;8.20;;;;;;;17.33;43.95;98524.84;2257921;79;21231;-77
2021/04/21 08:44:51;;;;;;;8.88;8.00;;;;;;;17.41;43.73;98523.41;2257876;79;21105;-77
2021/04/21 08:47:52;;;;;;;10.63;9.15;;;;;;;17.37;43.52;98523.05;2257747;79;21109;-78
2021/04/21 08:50:53;;;;;;;12.25;9.50;;;;;;;17.13;43.90;98520.42;2257961;79;21101;-75
2021/04/21 08:53:54;;;;;;;9.30;8.25;;;;;;;17.06;44.08;98526.27;2257712;79;21249;-78
2021/04/21 08:56:55;;;;;;;13.50;10.00;;;;;;;17.06;43.95;98522.75;2257732;79;21160;-79
2021/04/21 08:59:56;;;;;;;11.55;8.68;;;;;;;17.08;44.64;98528.42;2226267;79;21145;-77
2021/04/21 09:02:57;;;;;;;9.18;8.18;;;;;;;17.35;44.36;98520.44;2225821;80;21070;-78
2021/04/21 09:05:58;;;;;;;12.50;9.93;;;;;;;17.60;43.23;98512.88;2226260;80;21086;-77
2021/04/21 09:08:59;;;;;;;14.93;10.18;;;;;;;17.61;43.58;98517.70;2226174;80;21070;-77
2021/04/21 09:12:01;;;;;;;15.25;10.28;;;;;;;17.97;43.33;98519.55;2226151;80;21132;-78
2021/04/21 09:15:02;;;;;;;12.10;9.18;;;;;;;18.18;42.08;98525.24;2226134;80;21093;-77
2021/04/21 09:18:03;;;;;;;14.87;10.15;;;;;;;18.32;40.57;98513.47;2226340;80;21161;-77
2021/04/21 09:21:04;;;;;;;11.48;10.38;;;;;;;18.10;41.35;98516.17;2226307;80;21125;-77
2021/04/21 09:24:05;;;;;;;12.85;9.73;;;;;;;17.72;41.30;98508.69;2226187;80;21134;-77
2021/04/21 09:27:06;;;;;;;11.28;8.50;;;;;;;17.07;42.58;98507.35;2226149;80;21220;-77
2021/04/21 09:30:07;;;;;;;10.70;8.15;;;;;;;17.38;43.23;98501.04;2226399;80;21129;-79
2021/04/21 09:33:08;;;;;;;74.82;16.00;;;;;;;17.96;42.03;98494.51;2226323;80;21096;-79
2021/04/21 09:36:10;;;;;;;16.25;10.10;;;;;;;18.26;41.21;98493.80;2226569;79;21216;-80
2021/04/21 09:39:11;;;;;;;9.85;8.85;;;;;;;18.01;40.62;98489.53;2226547;80;21419;-79
2021/04/21 09:42:13;;;;;;;11.25;8.55;;;;;;;17.51;40.60;98482.73;2226381;80;21126;-79
2021/04/21 09:45:14;;;;;;;9.03;8.13;;;;;;;17.10;41.63;98488.38;2226390;80;21102;-79
2021/04/21 09:48:16;;;;;;;9.25;7.12;;;;;;;16.82;42.10;98489.82;2226158;80;21373;-78
2021/04/21 09:51:17;;;;;;;13.62;7.85;;;;;;;16.49;42.84;98487.31;2226080;80;21066;-77
2021/04/21 09:54:18;;;;;;;9.90;6.67;;;;;;;16.24;43.29;98486.83;2226144;80;21185;-78
2021/04/21 09:57:19;;;;;;;9.78;6.72;;;;;;;16.29;42.34;98491.58;2227215;79;21419;-77
2021/04/21 10:00:20;;;;;;;8.63;7.17;;;;;;;16.81;42.83;98483.68;2228208;79;21530;-78
2021/04/21 10:03:21;;;;;;;11.33;6.90;;;;;;;17.43;41.06;98474.98;2226124;80;21106;-78
2021/04/21 10:06:22;;;;;;;14.73;7.37;;;;;;;17.79;39.55;98477.28;2226364;80;21113;-78
2021/04/21 10:09:23;;;;;;;14.23;7.53;;;;;;;18.28;40.70;98466.89;2226618;80;21121;-78
2021/04/21 10:12:24;;;;;;;12.88;7.35;;;;;;;18.74;39.32;98455.16;2226164;80;21097;-78
2021/04/21 10:15:26;;;;;;;9.03;6.83;;;;;;;19.00;38.92;98451.33;2226470;79;21233;-78
2021/04/21 10:18:29;;;;;;;9.63;6.95;;;;;;;18.72;37.94;98452.55;2225862;80;21172;-78
2021/04/21 10:21:30;;;;;;;11.38;7.25;;;;;;;18.50;37.89;98453.13;2226333;80;21102;-77
2021/04/21 10:24:31;;;;;;;9.83;7.37;;;;;;;18.14;38.03;98453.13;2226212;80;21126;-79
2021/04/21 10:27:32;;;;;;;11.08;9.15;;;;;;;17.56;39.40;98457.56;2226886;80;21109;-78
2021/04/21 10:30:33;;;;;;;12.25;8.55;;;;;;;16.80;42.19;98471.84;2226411;80;21382;-78
2021/04/21 10:33:34;;;;;;;12.68;7.65;;;;;;;16.27;43.49;98463.52;2226593;80;21102;-79
2021/04/21 10:36:35;;;;;;;12.15;8.20;;;;;;;15.83;43.73;98465.98;2226199;80;21127;-79
2021/04/21 10:39:36;;;;;;;10.00;7.12;;;;;;;15.60;44.87;98469.36;2226431;80;21376;-80
2021/04/21 10:42:37;;;;;;;42.88;10.65;;;;;;;15.43;45.00;98475.27;2226706;80;21098;-79
2021/04/21 10:45:38;;;;;;;13.40;5.72;;;;;;;15.37;46.00;98468.78;2226443;80;21093;-79
2021/04/21 10:48:39;;;;;;;14.03;5.33;;;;;;;15.43;44.96;98465.62;2226610;80;21102;-79
2021/04/21 10:51:40;;;;;;;7.45;4.70;;;;;;;15.41;43.73;98465.22;2226536;80;21220;-78
2021/04/21 10:54:41;;;;;;;293.37;203.42;;;;;;;15.62;43.78;98461.48;2226443;80;21145;-78
2021/04/21 10:57:43;;;;;;;30.60;23.15;;;;;;;15.84;43.69;98455.88;2226428;80;21155;-78
2021/04/21 11:00:47;;;;;;;5.92;4.80;;;;;;;16.21;41.96;98453.52;2255300;79;21137;-78
2021/04/21 11:03:48;;;;;;;6.62;4.30;;;;;;;16.45;40.32;98456.17;2258131;78;21195;-78
2021/04/21 11:06:49;;;;;;;4.75;4.25;;;;;;;16.69;41.65;98454.05;2257857;79;21100;-80
2021/04/21 11:09:50;;;;;;;5.72;4.33;;;;;;;17.10;40.98;98451.47;2258005;79;21104;-78
2021/04/21 11:12:51;;;;;;;7.30;3.95;;;;;;;17.41;39.53;98459.63;2257976;78;21104;-80
2021/04/21 11:15:54;;;;;;;3.87;3.33;;;;;;;17.48;39.88;98459.91;2258177;79;21077;-78
2021/04/21 11:18:55;;;;;;;4.37;3.95;;;;;;;17.47;39.75;98458.62;2258242;79;21104;-79
2021/04/21 11:21:56;;;;;;;4.80;3.85;;;;;;;17.54;39.07;98461.55;2257937;79;21411;-79
2021/04/21 11:24:57;;;;;;;12.70;7.17;;;;;;;17.31;39.58;98477.84;2257892;79;21124;-78
2021/04/21 11:27:58;;;;;;;10.90;6.92;;;;;;;16.83;40.02;98513.96;2257804;79;21100;-77
2021/04/21 11:31:00;;;;;;;9.70;7.17;;;;;;;15.56;42.94;98510.59;2258280;79;21212;-77
2021/04/21 11:34:01;;;;;;;9.68;7.90;;;;;;;14.51;48.14;98514.39;2258006;79;21269;-78
2021/04/21 11:37:02;;;;;;;16.65;7.62;;;;;;;13.78;51.59;98514.89;2258033;79;21109;-77
2021/04/21 11:40:07;;;;;;;11.45;8.13;;;;;;;13.10;54.91;98526.98;2258340;79;21507;-79
2021/04/21 11:43:11;;;;;;;13.93;9.03;;;;;;;12.58;57.03;98518.78;2258372;79;21454;-80
2021/04/21 11:46:12;;;;;;;12.03;8.78;;;;;;;12.19;58.51;98503.10;2258299;79;21498;-78
2021/04/21 11:49:13;;;;;;;13.88;9.28;;;;;;;12.27;58.85;98484.34;2258072;79;21081;-79
2021/04/21 11:52:14;;;;;;;10.60;7.70;;;;;;;12.74;58.69;98470.73;2258091;79;21128;-78
2021/04/21 11:55:15;;;;;;;7.03;6.33;;;;;;;13.40;59.01;98470.53;2257980;79;21124;-78
2021/04/21 11:58:16;;;;;;;8.50;6.83;;;;;;;14.01;55.99;98460.97;2257802;79;21176;-80
2021/04/21 12:01:19;;;;;;;12.10;8.35;;;;;;;14.58;56.59;98456.10;2181450;82;21166;-78
2021/04/21 12:04:21;;;;;;;9.88;7.25;;;;;;;15.14;54.14;98448.91;2181389;82;21096;-78
2021/04/21 12:07:22;;;;;;;6.90;5.25;;;;;;;15.49;52.48;98440.55;2181560;82;21084;-79
2021/04/21 12:10:23;;;;;;;8.15;4.45;;;;;;;15.69;49.34;98431.11;2181059;82;21120;-78
2021/04/21 12:13:26;;;;;;;5.28;4.70;;;;;;;15.79;48.26;98431.84;2180835;82;21797;-78
2021/04/21 12:16:28;;;;;;;6.50;5.67;;;;;;;15.90;47.00;98437.36;2181072;82;21245;-78
2021/04/21 12:19:30;;;;;;;11.90;8.43;;;;;;;15.97;48.11;98430.23;2181414;82;21136;-78
2021/04/21 12:22:31;;;;;;;9.18;7.40;;;;;;;16.03;48.32;98430.13;2181151;82;21147;-78
2021/04/21 12:25:32;;;;;;;15.75;9.05;;;;;;;16.03;47.74;98434.52;2181279;82;21144;-78
2021/04/21 12:28:33;;;;;;;10.53;7.35;;;;;;;15.80;45.75;98441.47;2181404;82;21131;-79
2021/04/21 12:31:35;;;;;;;9.90;7.25;;;;;;;15.54;46.47;98451.00;2181204;82;21214;-78
2021/04/21 12:34:37;;;;;;;12.53;8.00;;;;;;;15.44;47.15;98452.02;2181358;82;21088;-82
2021/04/21 12:37:38;;;;;;;13.25;8.38;;;;;;;15.45;48.93;98450.69;2181691;82;21162;-79
2021/04/21 12:40:39;;;;;;;12.98;9.15;;;;;;;15.45;49.36;98443.24;2181695;82;21143;-79
2021/04/21 12:43:40;;;;;;;13.03;9.10;;;;;;;15.63;49.33;98430.33;2181280;82;21104;-79
2021/04/21 12:46:42;;;;;;;13.75;8.48;;;;;;;15.88;48.19;98423.80;2181405;82;21120;-79
2021/04/21 12:49:46;;;;;;;8.70;7.50;;;;;;;16.17;47.14;98414.97;2181978;82;21080;-80
2021/04/21 12:52:47;;;;;;;16.42;8.60;;;;;;;16.42;46.71;98411.89;2182098;82;21076;-80
2021/04/21 12:55:48;;;;;;;12.20;8.20;;;;;;;16.53;46.35;98412.14;2181770;82;21171;-79
2021/04/21 12:58:49;;;;;;;9.48;7.50;;;;;;;16.55;45.05;98405.53;2185508;79;21154;-79
2021/04/21 13:01:50;;;;;;;9.90;6.25;;;;;;;16.61;46.00;98402.78;2227143;79;21098;-81
2021/04/21 13:04:51;;;;;;;11.48;5.70;;;;;;;16.74;41.77;98411.34;2227248;80;21353;-80
2021/04/21 13:07:54;;;;;;;11.03;6.00;;;;;;;16.72;42.25;98398.64;2227115;80;21106;-79
2021/04/21 13:10:55;;;;;;;28.20;7.22;;;;;;;16.76;41.70;98393.28;2227842;80;21241;-78
2021/04/21 13:13:56;;;;;;;7.80;5.42;;;;;;;16.80;40.90;98399.36;2226964;80;21062;-79
2021/04/21 13:16:57;;;;;;;9.45;5.58;;;;;;;16.85;41.95;98398.81;2227101;80;21158;-79
2021/04/21 13:19:59;;;;;;;6.70;4.85;;;;;;;16.94;42.13;98392.48;2226549;80;21391;-80
2021/04/21 13:23:00;;;;;;;8.58;4.62;;;;;;;17.05;42.14;98386.09;2226466;80;21074;-79
2021/04/21 13:26:02;;;;;;;5.50;4.72;;;;;;;17.19;42.54;98381.83;2226426;80;21153;-79
2021/04/21 13:29:03;;;;;;;6.40;4.62;;;;;;;17.37;40.72;98379.27;2226741;80;21352;-80
2021/04/21 13:32:04;;;;;;;7.97;5.42;;;;;;;17.41;40.94;98375.20;2226556;80;21078;-79
2021/04/21 13:35:05;;;;;;;7.05;5.22;;;;;;;17.48;40.30;98373.30;2226438;80;21109;-78
2021/04/21 13:38:06;;;;;;;9.53;5.53;;;;;;;17.66;40.58;98366.71;2226628;79;21145;-80
2021/04/21 13:41:08;;;;;;;8.85;5.28;;;;;;;17.80;40.88;98371.23;2226812;80;21113;-79
2021/04/21 13:44:09;;;;;;;11.30;6.95;;;;;;;17.68;40.14;98364.94;2226760;79;21086;-79
2021/04/21 13:47:11;;;;;;;10.50;6.45;;;;;;;17.77;39.75;98358.98;2226782;79;21098;-78
2021/04/21 13:50:15;;;;;;;11.25;6.47;;;;;;;17.94;39.24;98351.09;2226488;80;21090;-78
2021/04/21 13:53:15;;;;;;;15.23;6.22;;;;;;;17.97;39.60;98349.69;2226472;80;21312;-78
2021/04/21 13:56:16;;;;;;;6.97;5.80;;;;;;;17.99;37.71;98344.78;2226238;80;21102;-79
2021/04/21 13:59:18;;;;;;;8.55;5.40;;;;;;;18.00;38.35;98349.16;2231874;79;21148;-79
2021/04/21 14:02:19;;;;;;;10.95;5.55;;;;;;;17.97;37.05;98344.41;2258154;79;21370;-79